createdAt,value
2022-12-03T00:01:49.279Z,80.99
2022-12-03T00:05:49.526Z,80.81
2022-12-03T00:09:48.720Z,80.79
2022-12-03T00:13:48.765Z,80.36
2022-12-03T00:17:48.160Z,80.52
2022-12-03T00:21:47.900Z,80.77
2022-12-03T00:25:47.638Z,80.87
2022-12-03T00:29:47.741Z,81.03
2022-12-03T00:33:47.642Z,80.90
2022-12-03T00:37:47.187Z,80.76
2022-12-03T00:41:46.479Z,80.34
2022-12-03T00:45:46.086Z,80.00
2022-12-03T00:49:45.064Z,79.41
2022-12-03T00:53:44.047Z,79.55
2022-12-03T00:57:43.026Z,79.45
2022-12-03T01:01:46.002Z,79.75
2022-12-03T01:05:45.421Z,79.54
2022-12-03T01:09:44.968Z,79.01
2022-12-03T01:13:43.768Z,78.64
2022-12-03T01:17:42.948Z,78.92
2022-12-03T01:21:47.630Z,79.15
2022-12-03T01:25:47.004Z,79.29
2022-12-03T01:29:45.747Z,79.40
2022-12-03T01:33:45.038Z,79.70
2022-12-03T01:37:44.252Z,79.87
2022-12-03T01:41:58.928Z,79.84
2022-12-03T01:45:57.986Z,79.81
2022-12-03T01:50:03.065Z,79.77
2022-12-03T01:54:03.423Z,79.62
2022-12-03T01:58:02.717Z,79.77
2022-12-03T02:02:13.427Z,79.83
2022-12-03T02:06:19.452Z,79.97
2022-12-03T02:10:25.661Z,80.05
2022-12-03T02:18:15.621Z,80.42
2022-12-03T02:21:51.663Z,80.76
2022-12-03T02:25:50.802Z,81.06
2022-12-03T02:29:52.002Z,81.07
2022-12-03T02:34:38.258Z,81.13
2022-12-03T02:37:47.695Z,81.10
2022-12-03T02:42:10.621Z,80.89
2022-12-03T02:46:14.181Z,80.80
2022-12-03T02:49:54.754Z,80.91
2022-12-03T02:54:00.202Z,80.70
2022-12-03T02:58:05.104Z,80.45
2022-12-03T03:02:12.164Z,80.56
2022-12-03T03:05:45.478Z,80.37
2022-12-03T03:09:28.920Z,80.19
2022-12-03T03:13:18.552Z,80.27
2022-12-03T03:24:06.364Z,80.63
2022-12-03T03:31:59.541Z,80.20
2022-12-03T03:35:26.745Z,80.11
2022-12-03T03:39:07.145Z,80.41
2022-12-03T03:51:25.610Z,80.27
2022-12-03T03:55:46.831Z,80.02
2022-12-03T03:59:05.408Z,79.60
2022-12-03T04:02:49.290Z,79.34
2022-12-03T04:06:23.950Z,79.70
2022-12-03T04:13:49.409Z,79.47
2022-12-03T04:22:44.963Z,79.02
2022-12-03T04:44:47.572Z,80.22
2022-12-03T04:48:49.604Z,80.30
2022-12-03T04:52:08.124Z,80.20
2022-12-03T04:56:20.103Z,80.21
2022-12-03T05:03:36.557Z,80.17
2022-12-03T05:07:39.227Z,79.95
2022-12-03T05:11:56.106Z,79.74
2022-12-03T05:15:39.891Z,79.73
2022-12-03T05:19:11.923Z,79.90
2022-12-03T05:22:57.052Z,79.52
2022-12-03T05:31:08.179Z,79.87
2022-12-03T05:34:19.128Z,80.01
2022-12-03T05:37:55.352Z,80.08
2022-12-03T05:42:13.187Z,79.86
2022-12-03T05:46:26.543Z,79.71
2022-12-03T05:50:28.352Z,79.77
2022-12-03T05:54:27.028Z,80.21
2022-12-03T05:58:26.291Z,80.58
2022-12-03T06:02:25.455Z,80.94
2022-12-03T06:06:25.223Z,81.35
2022-12-03T06:10:27.149Z,81.45
2022-12-03T06:14:26.827Z,81.58
2022-12-03T06:18:26.031Z,81.63
2022-12-03T06:22:38.686Z,81.39
2022-12-03T06:26:37.406Z,81.58
2022-12-03T06:30:37.179Z,81.65
2022-12-03T06:34:37.026Z,81.89
2022-12-03T06:38:36.009Z,82.25
2022-12-03T06:42:35.567Z,82.14
2022-12-03T06:46:34.978Z,82.28
2022-12-03T06:50:34.162Z,82.53
2022-12-03T06:54:33.374Z,82.92
2022-12-03T06:58:46.819Z,83.05
2022-12-03T07:02:48.290Z,83.33
2022-12-03T07:06:23.888Z,83.61
2022-12-03T07:10:23.588Z,84.19
2022-12-03T07:14:23.141Z,84.52
2022-12-03T07:18:23.161Z,84.52
2022-12-03T07:22:22.979Z,84.38
2022-12-03T07:26:22.708Z,84.62
2022-12-03T07:30:23.904Z,84.57
2022-12-03T07:34:23.506Z,84.79
2022-12-03T07:38:22.867Z,84.80
2022-12-03T07:42:22.007Z,84.79
2022-12-03T07:46:21.151Z,84.79
2022-12-03T07:50:21.060Z,84.83
2022-12-03T07:54:22.370Z,84.82
2022-12-03T07:58:21.486Z,84.81
2022-12-03T08:02:34.870Z,84.65
2022-12-03T08:06:35.226Z,84.60
2022-12-03T08:10:34.934Z,84.63
2022-12-03T08:14:36.249Z,84.54
2022-12-03T08:18:35.553Z,84.66
2022-12-03T08:22:34.808Z,84.84
2022-12-03T08:26:34.575Z,84.81
2022-12-03T08:30:34.361Z,84.84
2022-12-03T08:34:40.674Z,84.98
2022-12-03T08:38:40.609Z,85.12
2022-12-03T08:42:43.096Z,85.07
2022-12-03T08:46:42.093Z,84.90
2022-12-03T08:50:42.893Z,84.88
2022-12-03T08:54:43.687Z,84.72
2022-12-03T08:58:44.759Z,84.71
2022-12-03T09:02:48.826Z,84.61
2022-12-03T09:06:48.087Z,84.48
2022-12-03T09:10:47.575Z,84.28
2022-12-03T09:14:47.299Z,84.12
2022-12-03T09:18:48.920Z,83.99
2022-12-03T09:22:47.833Z,83.89
2022-12-03T09:26:47.241Z,83.73
2022-12-03T09:30:46.628Z,83.61
2022-12-03T09:34:46.707Z,83.49
2022-12-03T09:38:47.966Z,83.38
2022-12-03T09:42:48.130Z,83.38
2022-12-03T09:46:48.855Z,83.35
2022-12-03T09:50:49.402Z,83.30
2022-12-03T09:54:48.676Z,83.34
2022-12-03T09:59:02.869Z,83.34
2022-12-03T10:03:19.194Z,83.44
2022-12-03T10:07:18.353Z,83.64
2022-12-03T10:11:20.067Z,83.80
2022-12-03T10:15:22.008Z,83.88
2022-12-03T10:19:31.882Z,84.08
2022-12-03T10:23:32.068Z,84.16
2022-12-03T10:27:31.008Z,84.28
2022-12-03T10:31:37.044Z,84.31
2022-12-03T10:35:39.403Z,84.36
2022-12-03T10:40:01.933Z,84.40
2022-12-03T10:44:26.432Z,84.41
2022-12-03T10:48:27.578Z,84.41
2022-12-03T10:52:27.293Z,84.37
2022-12-03T10:56:27.698Z,84.33
2022-12-03T11:00:27.045Z,84.33
2022-12-03T11:04:34.307Z,84.26
2022-12-03T11:08:37.862Z,84.23
2022-12-03T11:12:37.842Z,84.16
2022-12-03T11:16:40.154Z,84.09
2022-12-03T11:20:45.873Z,84.07
2022-12-03T11:24:45.342Z,83.98
2022-12-03T11:28:48.010Z,83.93
2022-12-03T11:32:47.455Z,83.88
2022-12-03T11:37:11.727Z,83.87
2022-12-03T11:41:19.650Z,83.82
2022-12-03T11:45:37.542Z,83.81
2022-12-03T11:49:39.984Z,83.73
2022-12-03T11:53:40.638Z,83.74
2022-12-03T11:57:40.594Z,83.84
2022-12-03T12:01:42.167Z,83.92
2022-12-03T12:06:08.502Z,84.06
2022-12-03T12:10:41.788Z,84.21
2022-12-03T12:14:42.554Z,84.38
2022-12-03T12:18:45.903Z,84.60
2022-12-03T12:22:44.987Z,84.73
2022-12-03T12:26:51.654Z,84.79
2022-12-03T12:30:50.400Z,84.94
2022-12-03T12:34:53.494Z,85.06
2022-12-03T12:38:52.800Z,85.18
2022-12-03T12:42:58.129Z,85.28
2022-12-03T12:47:12.978Z,85.36
2022-12-03T12:51:13.866Z,85.36
2022-12-03T12:55:15.102Z,85.45
2022-12-03T12:59:20.705Z,85.59
2022-12-03T13:03:22.682Z,85.72
2022-12-03T13:07:22.673Z,85.76
2022-12-03T13:11:24.960Z,85.84
2022-12-03T13:15:47.454Z,85.91
2022-12-03T13:20:01.972Z,86.08
2022-12-03T13:24:31.308Z,86.12
2022-12-03T13:28:31.435Z,86.52
2022-12-03T13:32:37.231Z,86.44
2022-12-03T13:36:43.050Z,86.13
2022-12-03T13:40:42.615Z,85.73
2022-12-03T13:44:48.122Z,85.31
2022-12-03T13:48:47.940Z,84.98
2022-12-03T13:52:47.843Z,84.98
2022-12-03T13:56:48.017Z,85.01
2022-12-03T14:00:47.375Z,85.08
2022-12-03T14:04:46.675Z,85.18
2022-12-03T14:08:45.690Z,85.28
2022-12-03T14:12:44.953Z,85.35
2022-12-03T14:16:44.920Z,85.41
2022-12-03T14:20:45.592Z,85.49
2022-12-03T14:24:44.673Z,85.62
2022-12-03T14:28:44.602Z,85.71
2022-12-03T14:32:45.990Z,85.71
2022-12-03T14:36:21.891Z,85.98
2022-12-03T14:40:21.973Z,85.95
2022-12-03T14:44:24.433Z,86.10
2022-12-03T14:48:23.663Z,86.19
2022-12-03T14:52:23.242Z,86.27
2022-12-03T14:56:36.030Z,86.31
2022-12-03T15:00:35.367Z,86.32
2022-12-03T15:04:36.424Z,86.32
2022-12-03T15:08:12.220Z,86.37
2022-12-03T15:12:11.428Z,86.51
2022-12-03T15:16:10.495Z,86.33
2022-12-03T15:20:24.011Z,86.04
2022-12-03T15:24:37.250Z,85.97
2022-12-03T15:28:36.609Z,85.99
2022-12-03T15:32:36.405Z,86.07
2022-12-03T15:36:35.577Z,86.15
2022-12-03T15:40:35.216Z,86.31
2022-12-03T15:44:34.318Z,86.48
2022-12-03T15:48:34.362Z,86.57
2022-12-03T15:52:34.008Z,86.65
2022-12-03T15:56:37.747Z,86.77
2022-12-03T16:00:36.923Z,86.79
2022-12-03T16:04:50.311Z,86.83
2022-12-03T16:08:50.931Z,86.87
2022-12-03T16:12:28.590Z,86.86
2022-12-03T16:16:27.517Z,86.89
2022-12-03T16:20:27.787Z,86.85
2022-12-03T16:24:27.662Z,86.78
2022-12-03T16:28:26.972Z,86.74
2022-12-03T16:32:26.682Z,86.69
2022-12-03T16:36:26.107Z,86.58
2022-12-03T16:40:25.632Z,86.44
2022-12-03T16:44:32.974Z,86.33
2022-12-03T16:48:32.242Z,86.27
2022-12-03T16:52:31.530Z,86.22
2022-12-03T16:56:30.670Z,85.99
2022-12-03T17:00:30.069Z,85.73
2022-12-03T17:04:29.281Z,85.54
2022-12-03T17:08:28.575Z,85.39
2022-12-03T17:12:37.466Z,85.10
2022-12-03T17:16:47.770Z,84.85
2022-12-03T17:20:47.223Z,84.83
2022-12-03T17:24:47.011Z,84.78
2022-12-03T17:28:46.693Z,84.54
2022-12-03T17:32:46.078Z,84.44
2022-12-03T17:36:44.989Z,84.40
2022-12-03T17:40:43.878Z,84.39
2022-12-03T17:44:42.670Z,84.36
2022-12-03T17:48:42.847Z,84.30
2022-12-03T17:52:41.571Z,84.22
2022-12-03T17:56:43.692Z,84.17
2022-12-03T18:00:42.590Z,84.16
2022-12-03T18:04:42.318Z,84.03
2022-12-03T18:08:41.492Z,83.67
2022-12-03T18:12:59.812Z,83.60
2022-12-03T18:17:00.650Z,83.49
2022-12-03T18:21:04.499Z,83.36
2022-12-03T18:25:05.225Z,83.29
2022-12-03T18:29:04.714Z,83.23
2022-12-03T18:33:04.307Z,83.01
2022-12-03T18:37:03.578Z,82.90
2022-12-03T18:41:02.853Z,82.87
2022-12-03T18:45:02.417Z,82.69
2022-12-03T18:49:01.461Z,82.66
2022-12-03T18:53:03.090Z,82.56
2022-12-03T18:56:38.469Z,82.57
2022-12-03T19:00:38.966Z,82.53
2022-12-03T19:04:37.869Z,82.62
2022-12-03T19:08:37.076Z,82.60
2022-12-03T19:12:37.578Z,82.57
2022-12-03T19:16:39.316Z,82.44
2022-12-03T19:20:42.505Z,82.23
2022-12-03T19:24:42.172Z,82.15
2022-12-03T19:28:42.448Z,82.30
2022-12-03T19:32:42.088Z,82.38
2022-12-03T19:36:42.270Z,82.19
2022-12-03T19:40:42.212Z,82.10
2022-12-03T19:44:41.403Z,82.16
2022-12-03T19:48:41.865Z,82.34
2022-12-03T19:52:41.550Z,82.43
2022-12-03T19:56:41.208Z,82.65
2022-12-03T20:00:41.224Z,82.74
2022-12-03T20:04:41.524Z,82.73
2022-12-03T20:08:41.986Z,82.87
2022-12-03T20:12:41.422Z,83.19
2022-12-03T20:16:42.069Z,83.38
2022-12-03T20:20:41.394Z,83.58
2022-12-03T20:24:41.323Z,83.71
2022-12-03T20:28:42.229Z,83.86
2022-12-03T20:32:18.729Z,83.87
2022-12-03T20:36:32.890Z,83.80
2022-12-03T20:40:36.337Z,83.86
2022-12-03T20:44:37.824Z,83.88
2022-12-03T20:48:38.131Z,83.88
2022-12-03T20:52:37.469Z,83.82
2022-12-03T20:56:42.393Z,83.73
2022-12-03T21:00:41.796Z,83.63
2022-12-03T21:04:41.033Z,83.63
2022-12-03T21:08:42.853Z,83.58
2022-12-03T21:12:42.849Z,83.59
2022-12-03T21:17:07.072Z,83.68
2022-12-03T21:21:07.105Z,83.80
2022-12-03T21:25:07.004Z,83.86
2022-12-03T21:29:06.570Z,83.77
2022-12-03T21:33:06.805Z,83.68
2022-12-03T21:37:06.121Z,83.61
2022-12-03T21:41:24.515Z,83.64
2022-12-03T21:44:43.277Z,83.63
2022-12-03T21:48:43.727Z,83.69
2022-12-03T21:52:43.085Z,83.70
2022-12-03T21:56:43.238Z,83.73
2022-12-03T22:00:56.506Z,83.82
2022-12-03T22:04:56.205Z,83.86
2022-12-03T22:08:56.104Z,83.83
2022-12-03T22:12:55.549Z,83.67
2022-12-03T22:16:55.030Z,83.68
2022-12-03T22:20:54.742Z,83.70
2022-12-03T22:25:12.713Z,83.72
2022-12-03T22:28:33.036Z,83.65
2022-12-03T22:32:32.495Z,83.66
2022-12-03T22:36:32.202Z,83.72
2022-12-03T22:40:31.743Z,83.73
2022-12-03T22:44:31.565Z,83.77
2022-12-03T22:48:33.897Z,83.78
2022-12-03T22:52:34.029Z,83.82
2022-12-03T22:56:34.043Z,83.89
2022-12-03T23:00:36.993Z,83.96
2022-12-03T23:04:36.846Z,84.00
2022-12-03T23:08:36.491Z,84.02
2022-12-03T23:12:36.944Z,84.09
2022-12-03T23:16:36.790Z,84.08
2022-12-03T23:20:48.016Z,84.23
2022-12-03T23:24:47.352Z,84.36
2022-12-03T23:28:47.306Z,84.37
2022-12-03T23:32:46.273Z,84.40
2022-12-03T23:36:46.128Z,84.61
2022-12-03T23:40:48.197Z,84.67
2022-12-03T23:44:48.115Z,84.85
2022-12-03T23:48:47.725Z,85.00
2022-12-03T23:52:47.269Z,85.16
2022-12-03T23:56:46.582Z,85.17
